createdAt,value
2018-11-27T00:01:05.468Z,6.09
2018-11-27T00:02:05.478Z,6.03
2018-11-27T00:03:58.378Z,6.06
2018-11-27T00:04:58.383Z,6.08
2018-11-27T00:06:51.276Z,6.15
2018-11-27T00:07:51.282Z,6.15
2018-11-27T00:09:44.185Z,6.15
2018-11-27T00:10:44.189Z,6.03
2018-11-27T00:12:37.088Z,6.09
2018-11-27T00:13:37.093Z,6.09
2018-11-27T00:15:29.982Z,6.11
2018-11-27T00:16:29.994Z,6.03
2018-11-27T00:18:22.894Z,6.09
2018-11-27T00:19:22.895Z,6.03
2018-11-27T00:21:15.790Z,6.09
2018-11-27T00:22:15.802Z,6.06
2018-11-27T00:24:08.703Z,5.99
2018-11-27T00:25:08.753Z,5.99
2018-11-27T00:27:01.598Z,5.90
2018-11-27T00:28:01.612Z,5.99
2018-11-27T00:29:54.512Z,5.93
2018-11-27T00:30:54.514Z,5.89
2018-11-27T00:32:47.411Z,5.93
2018-11-27T00:33:47.415Z,5.93
2018-11-27T00:35:40.311Z,5.89
2018-11-27T00:36:40.318Z,5.91
2018-11-27T00:38:33.222Z,5.90
2018-11-27T00:39:33.221Z,5.97
2018-11-27T00:41:26.115Z,5.96
2018-11-27T00:42:26.127Z,5.90
2018-11-27T00:44:19.030Z,5.99
2018-11-27T00:45:19.031Z,5.97
2018-11-27T00:47:11.924Z,5.99
2018-11-27T00:48:11.936Z,6.03
2018-11-27T00:50:04.836Z,5.96
2018-11-27T00:51:04.839Z,5.99
2018-11-27T00:52:57.740Z,6.01
2018-11-27T00:53:57.746Z,6.00
2018-11-27T00:55:50.636Z,6.03
2018-11-27T00:56:50.649Z,6.14
2018-11-27T00:58:43.546Z,6.12
2018-11-27T00:59:43.551Z,6.12
2018-11-27T01:01:36.441Z,6.01
2018-11-27T01:02:36.454Z,6.04
2018-11-27T01:04:29.356Z,6.08
2018-11-27T01:05:29.361Z,5.99
2018-11-27T01:07:22.251Z,6.03
2018-11-27T01:08:22.262Z,6.03
2018-11-27T01:10:15.163Z,6.00
2018-11-27T01:11:15.166Z,6.03
2018-11-27T01:13:08.080Z,6.08
2018-11-27T01:14:08.072Z,6.01
2018-11-27T01:16:00.963Z,6.06
2018-11-27T01:17:00.975Z,6.04
2018-11-27T01:18:53.877Z,5.99
2018-11-27T01:19:53.880Z,6.00
2018-11-27T01:21:46.772Z,5.99
2018-11-27T01:22:46.785Z,6.00
2018-11-27T01:24:39.685Z,5.90
2018-11-27T01:25:39.689Z,5.96
2018-11-27T01:27:32.584Z,5.94
2018-11-27T01:28:32.593Z,5.99
2018-11-27T01:30:25.495Z,6.01
2018-11-27T01:31:25.498Z,5.99
2018-11-27T01:33:18.403Z,5.94
2018-11-27T01:34:18.403Z,5.89
2018-11-27T01:36:11.303Z,6.04
2018-11-27T01:37:11.306Z,5.96
2018-11-27T01:39:05.692Z,6.01
2018-11-27T01:40:05.704Z,6.00
2018-11-27T01:41:58.603Z,6.15
2018-11-27T01:42:58.609Z,6.11
2018-11-27T01:44:51.507Z,6.14
2018-11-27T01:45:51.510Z,6.18
2018-11-27T01:47:44.410Z,6.08
2018-11-27T01:48:44.415Z,6.01
2018-11-27T01:50:37.316Z,6.09
2018-11-27T01:51:37.318Z,6.14
2018-11-27T01:53:30.215Z,6.14
2018-11-27T01:54:30.226Z,6.09
2018-11-27T01:56:23.250Z,6.09
2018-11-27T01:57:23.254Z,6.06
2018-11-27T01:59:16.250Z,6.14
2018-11-27T02:00:16.263Z,6.18
2018-11-27T02:02:09.162Z,6.18
2018-11-27T02:03:09.166Z,6.14
2018-11-27T02:05:02.067Z,6.14
2018-11-27T02:06:02.078Z,6.03
2018-11-27T02:07:55.455Z,6.09
2018-11-27T02:08:55.471Z,6.12
2018-11-27T02:10:48.369Z,6.17
2018-11-27T02:11:48.371Z,6.18
2018-11-27T02:13:41.268Z,6.12
2018-11-27T02:14:41.280Z,6.12
2018-11-27T02:16:34.181Z,6.18
2018-11-27T02:17:34.184Z,6.14
2018-11-27T02:19:27.078Z,6.18
2018-11-27T02:20:27.086Z,6.12
2018-11-27T02:22:19.986Z,6.01
2018-11-27T02:23:19.992Z,6.06
2018-11-27T02:25:12.890Z,6.03
2018-11-27T02:26:12.891Z,6.03
2018-11-27T02:28:05.790Z,6.11
2018-11-27T02:29:05.798Z,6.11
2018-11-27T02:30:58.699Z,6.00
2018-11-27T02:31:58.702Z,5.99
2018-11-27T02:33:51.598Z,6.01
2018-11-27T02:34:51.609Z,5.99
2018-11-27T02:36:44.510Z,6.01
2018-11-27T02:37:44.515Z,5.91
2018-11-27T02:39:37.406Z,5.99
2018-11-27T02:40:37.414Z,5.99
2018-11-27T02:42:30.321Z,6.01
2018-11-27T02:43:30.326Z,5.99
2018-11-27T02:45:23.219Z,6.08
2018-11-27T02:46:23.221Z,6.04
2018-11-27T02:48:16.113Z,6.15
2018-11-27T02:49:16.125Z,6.04
2018-11-27T02:51:09.027Z,6.11
2018-11-27T02:52:09.032Z,5.99
2018-11-27T02:54:01.927Z,6.12
2018-11-27T02:55:01.935Z,6.09
2018-11-27T02:56:54.837Z,6.01
2018-11-27T02:57:54.839Z,5.99
2018-11-27T02:59:47.737Z,5.99
2018-11-27T03:00:47.752Z,5.99
2018-11-27T03:02:40.654Z,5.93
2018-11-27T03:03:40.654Z,5.91
2018-11-27T03:05:33.559Z,5.90
2018-11-27T03:06:33.558Z,6.01
2018-11-27T03:08:26.452Z,5.99
2018-11-27T03:09:26.461Z,5.99
2018-11-27T03:11:19.364Z,5.99
2018-11-27T03:12:19.363Z,5.94
2018-11-27T03:14:12.254Z,5.93
2018-11-27T03:15:12.267Z,5.94
2018-11-27T03:17:05.269Z,5.81
2018-11-27T03:18:05.270Z,5.82
2018-11-27T03:19:58.162Z,5.79
2018-11-27T03:20:58.172Z,5.89
2018-11-27T03:22:51.082Z,5.91
2018-11-27T03:23:51.074Z,5.90
2018-11-27T03:25:43.974Z,5.93
2018-11-27T03:26:43.978Z,5.91
2018-11-27T03:28:36.877Z,5.94
2018-11-27T03:29:36.880Z,5.94
2018-11-27T03:31:29.781Z,6.00
2018-11-27T03:32:29.784Z,5.99
2018-11-27T03:34:22.673Z,5.94
2018-11-27T03:35:22.707Z,6.00
2018-11-27T03:37:15.585Z,5.99
2018-11-27T03:38:15.591Z,6.01
2018-11-27T03:40:08.481Z,6.12
2018-11-27T03:41:08.498Z,6.15
2018-11-27T03:43:01.392Z,6.15
2018-11-27T03:44:01.398Z,6.17
2018-11-27T03:45:54.289Z,6.15
2018-11-27T03:46:54.302Z,6.17
2018-11-27T03:48:47.203Z,6.22
2018-11-27T03:49:47.209Z,6.18
2018-11-27T03:51:40.112Z,6.17
2018-11-27T03:52:40.115Z,6.22
2018-11-27T03:54:33.005Z,6.25
2018-11-27T03:55:33.019Z,6.30
2018-11-27T03:57:25.917Z,6.31
2018-11-27T03:58:25.921Z,6.28
2018-11-27T04:00:18.916Z,6.28
2018-11-27T04:01:18.824Z,6.33
2018-11-27T04:03:11.739Z,6.33
2018-11-27T04:04:11.728Z,6.31
2018-11-27T04:06:05.113Z,6.25
2018-11-27T04:07:05.126Z,6.30
2018-11-27T04:08:58.028Z,6.25
2018-11-27T04:09:58.031Z,6.28
2018-11-27T04:11:50.945Z,6.30
2018-11-27T04:12:50.942Z,6.28
2018-11-27T04:14:43.828Z,6.21
2018-11-27T04:15:43.840Z,6.21
2018-11-27T04:17:36.740Z,6.27
2018-11-27T04:18:36.742Z,6.17
2018-11-27T04:20:29.635Z,6.18
2018-11-27T04:21:29.646Z,6.22
2018-11-27T04:23:22.549Z,6.15
2018-11-27T04:24:22.549Z,6.17
2018-11-27T04:26:15.443Z,6.18
2018-11-27T04:27:15.462Z,6.14
2018-11-27T04:29:08.355Z,6.11
2018-11-27T04:30:08.359Z,6.14
2018-11-27T04:32:01.246Z,6.18
2018-11-27T04:33:01.262Z,6.14
2018-11-27T04:34:54.163Z,6.18
2018-11-27T04:35:54.164Z,6.01
2018-11-27T04:37:47.078Z,6.12
2018-11-27T04:38:47.068Z,6.11
2018-11-27T04:40:39.960Z,6.03
2018-11-27T04:41:39.972Z,6.03
2018-11-27T04:43:32.872Z,5.99
2018-11-27T04:44:32.876Z,5.94
2018-11-27T04:46:25.768Z,5.96
2018-11-27T04:47:25.782Z,6.03
2018-11-27T04:49:18.681Z,6.06
2018-11-27T04:50:18.688Z,6.01
2018-11-27T04:52:11.576Z,6.09
2018-11-27T04:53:11.591Z,6.09
2018-11-27T04:55:04.525Z,6.14
2018-11-27T04:56:04.512Z,6.11
2018-11-27T04:57:57.400Z,6.15
2018-11-27T04:58:57.415Z,6.09
2018-11-27T05:00:50.314Z,6.04
2018-11-27T05:01:50.321Z,6.18
2018-11-27T05:03:43.212Z,6.12
2018-11-27T05:04:43.223Z,6.11
2018-11-27T05:06:36.128Z,6.14
2018-11-27T05:07:36.131Z,6.09
2018-11-27T05:09:29.030Z,6.08
2018-11-27T05:10:29.037Z,6.03
2018-11-27T05:12:21.954Z,6.01
2018-11-27T05:13:21.942Z,6.11
2018-11-27T05:15:14.845Z,6.25
2018-11-27T05:16:14.847Z,6.15
2018-11-27T05:18:08.266Z,6.14
2018-11-27T05:19:08.279Z,6.17
2018-11-27T05:21:01.181Z,6.15
2018-11-27T05:22:01.188Z,6.15
2018-11-27T05:23:54.076Z,6.27
2018-11-27T05:24:55.323Z,6.19
2018-11-27T05:26:47.298Z,6.19
2018-11-27T05:27:47.130Z,6.22
2018-11-27T05:29:41.967Z,6.03
2018-11-27T05:30:41.979Z,6.12
2018-11-27T05:32:34.927Z,6.08
2018-11-27T05:33:34.886Z,6.18
2018-11-27T05:35:27.846Z,6.08
2018-11-27T05:36:27.789Z,6.04
2018-11-27T05:38:20.681Z,6.01
2018-11-27T05:39:20.697Z,6.01
2018-11-27T05:41:13.592Z,5.96
2018-11-27T05:42:13.598Z,5.91
2018-11-27T05:44:06.493Z,6.01
2018-11-27T05:45:06.508Z,5.99
2018-11-27T05:46:59.403Z,5.97
2018-11-27T05:47:59.413Z,5.91
2018-11-27T05:49:52.301Z,6.01
2018-11-27T05:50:52.313Z,5.86
2018-11-27T05:52:45.215Z,5.94
2018-11-27T05:53:45.220Z,6.00
2018-11-27T05:55:38.111Z,5.90
2018-11-27T05:56:38.123Z,5.86
2018-11-27T05:58:31.028Z,6.01
2018-11-27T05:59:31.030Z,5.96
2018-11-27T06:01:23.931Z,5.86
2018-11-27T06:02:23.936Z,5.86
2018-11-27T06:04:16.840Z,5.96
2018-11-27T06:05:16.842Z,5.94
2018-11-27T06:07:09.737Z,5.99
2018-11-27T06:08:09.741Z,5.96
2018-11-27T06:10:02.633Z,6.00
2018-11-27T06:11:02.643Z,5.99
2018-11-27T06:12:55.556Z,5.96
2018-11-27T06:13:55.549Z,5.94
2018-11-27T06:15:48.443Z,6.00
2018-11-27T06:16:48.453Z,6.01
2018-11-27T06:18:41.355Z,6.01
2018-11-27T06:19:41.358Z,5.97
2018-11-27T06:21:34.251Z,5.97
2018-11-27T06:22:34.754Z,5.93
2018-11-27T06:24:27.169Z,5.93
2018-11-27T06:25:27.168Z,5.94
2018-11-27T06:27:20.058Z,5.94
2018-11-27T06:28:20.071Z,5.94
2018-11-27T06:30:12.968Z,5.93
2018-11-27T06:31:12.977Z,5.99
2018-11-27T06:33:05.874Z,5.91
2018-11-27T06:34:05.874Z,5.90
2018-11-27T06:35:58.767Z,5.94
2018-11-27T06:36:58.776Z,5.78
2018-11-27T06:38:51.680Z,5.85
2018-11-27T06:39:51.678Z,5.93
2018-11-27T06:41:44.569Z,5.86
2018-11-27T06:42:44.580Z,5.93
2018-11-27T06:44:37.484Z,5.86
2018-11-27T06:45:37.487Z,5.81
2018-11-27T06:47:30.376Z,5.96
2018-11-27T06:48:30.387Z,5.93
2018-11-27T06:50:23.290Z,5.86
2018-11-27T06:51:23.294Z,5.99
2018-11-27T06:53:16.194Z,6.01
2018-11-27T06:54:16.198Z,5.90
2018-11-27T06:56:09.089Z,5.85
2018-11-27T06:57:09.101Z,5.83
2018-11-27T06:59:02.003Z,5.86
2018-11-27T07:00:02.004Z,5.82
2018-11-27T07:01:54.895Z,5.94
2018-11-27T07:02:54.905Z,5.94
2018-11-27T07:04:47.809Z,5.93
2018-11-27T07:05:47.809Z,5.96
2018-11-27T07:07:40.702Z,5.94
2018-11-27T07:08:40.713Z,5.99
2018-11-27T07:10:33.616Z,6.01
2018-11-27T07:11:33.617Z,6.03
2018-11-27T07:13:26.508Z,5.99
2018-11-27T07:14:26.520Z,5.99
2018-11-27T07:16:19.422Z,5.97
2018-11-27T07:17:19.424Z,5.90
2018-11-27T07:19:12.325Z,5.85
2018-11-27T07:20:12.327Z,5.75
2018-11-27T07:22:05.220Z,5.76
2018-11-27T07:23:05.230Z,5.79
2018-11-27T07:24:58.130Z,5.79
2018-11-27T07:25:58.147Z,5.83
2018-11-27T07:27:51.025Z,5.72
2018-11-27T07:28:51.054Z,5.75
2018-11-27T07:30:43.941Z,5.76
2018-11-27T07:31:43.944Z,5.72
2018-11-27T07:33:36.835Z,5.83
2018-11-27T07:34:36.845Z,5.76
2018-11-27T07:36:29.747Z,5.82
2018-11-27T07:37:29.753Z,5.71
2018-11-27T07:39:22.652Z,5.63
2018-11-27T07:40:22.655Z,5.67
2018-11-27T07:42:15.547Z,5.61
2018-11-27T07:43:15.559Z,5.60
2018-11-27T07:45:08.952Z,5.56
2018-11-27T07:46:08.956Z,5.63
2018-11-27T07:48:01.852Z,5.65
2018-11-27T07:49:01.903Z,5.64
2018-11-27T07:50:54.761Z,5.60
2018-11-27T07:51:54.767Z,5.60
2018-11-27T07:53:47.652Z,5.63
2018-11-27T07:54:47.677Z,5.64
2018-11-27T07:56:40.566Z,5.65
2018-11-27T07:57:40.585Z,5.61
2018-11-27T07:59:33.468Z,5.64
2018-11-27T08:00:33.492Z,5.65
2018-11-27T08:02:26.365Z,5.68
2018-11-27T08:03:26.388Z,5.71
2018-11-27T08:05:19.276Z,5.72
2018-11-27T08:06:19.293Z,5.65
2018-11-27T08:08:12.170Z,5.60
2018-11-27T08:09:12.202Z,5.60
2018-11-27T08:11:05.083Z,5.68
2018-11-27T08:12:05.107Z,5.63
2018-11-27T08:13:57.978Z,5.72
2018-11-27T08:14:57.983Z,5.74
2018-11-27T08:16:50.894Z,5.76
2018-11-27T08:17:50.888Z,5.75
2018-11-27T08:19:43.796Z,5.72
2018-11-27T08:20:43.803Z,5.68
2018-11-27T08:22:36.694Z,5.72
2018-11-27T08:23:36.698Z,5.67
2018-11-27T08:25:29.607Z,5.76
2018-11-27T08:26:29.601Z,5.65
2018-11-27T08:28:22.501Z,5.63
2018-11-27T08:29:22.536Z,5.68
2018-11-27T08:31:15.412Z,5.67
2018-11-27T08:32:15.416Z,5.67
2018-11-27T08:34:08.307Z,5.72
2018-11-27T08:35:08.312Z,5.75
2018-11-27T08:37:01.220Z,5.65
2018-11-27T08:38:01.231Z,5.71
2018-11-27T08:39:54.123Z,5.68
2018-11-27T08:40:54.139Z,5.65
2018-11-27T08:42:47.016Z,5.65
2018-11-27T08:43:47.026Z,5.56
2018-11-27T08:45:39.932Z,5.56
2018-11-27T08:46:39.933Z,5.49
2018-11-27T08:48:32.832Z,5.56
2018-11-27T08:49:32.835Z,5.49
2018-11-27T08:51:25.736Z,5.56
2018-11-27T08:52:25.737Z,5.61
2018-11-27T08:54:18.631Z,5.71
2018-11-27T08:55:18.643Z,5.71
2018-11-27T08:57:11.544Z,5.81
2018-11-27T08:58:11.545Z,5.82
2018-11-27T09:00:04.445Z,5.76
2018-11-27T09:01:04.450Z,5.85
2018-11-27T09:02:57.343Z,5.83
2018-11-27T09:03:57.354Z,5.85
2018-11-27T09:05:50.260Z,5.83
2018-11-27T09:06:50.256Z,5.81
2018-11-27T09:08:44.016Z,5.76
2018-11-27T09:09:43.162Z,5.82
2018-11-27T09:11:36.062Z,5.96
2018-11-27T09:12:36.065Z,5.90
2018-11-27T09:14:28.956Z,5.94
2018-11-27T09:15:28.969Z,5.93
2018-11-27T09:17:21.870Z,5.96
2018-11-27T09:18:21.874Z,5.96
2018-11-27T09:20:14.773Z,6.00
2018-11-27T09:21:14.778Z,6.15
2018-11-27T09:23:07.670Z,6.18
2018-11-27T09:24:07.682Z,6.14
2018-11-27T09:26:01.081Z,6.21
2018-11-27T09:27:01.139Z,6.11
2018-11-27T09:28:53.976Z,6.18
2018-11-27T09:29:53.987Z,6.18
2018-11-27T09:31:46.890Z,6.21
2018-11-27T09:32:46.893Z,6.30
2018-11-27T09:34:39.792Z,6.36
2018-11-27T09:35:39.800Z,6.30
2018-11-27T09:37:32.721Z,6.31
2018-11-27T09:38:32.713Z,6.33
2018-11-27T09:40:25.614Z,6.22
2018-11-27T09:41:25.618Z,6.36
2018-11-27T09:43:18.513Z,6.19
2018-11-27T09:44:18.524Z,6.27
2018-11-27T09:46:11.424Z,6.27
2018-11-27T09:47:11.428Z,6.31
2018-11-27T09:49:04.323Z,6.37
2018-11-27T09:50:04.335Z,6.34
2018-11-27T09:51:57.235Z,6.31
2018-11-27T09:52:57.239Z,6.36
2018-11-27T09:54:50.132Z,6.40
2018-11-27T09:55:50.144Z,6.44
2018-11-27T09:57:43.046Z,6.40
2018-11-27T09:58:43.050Z,6.43
2018-11-27T10:00:35.964Z,6.30
2018-11-27T10:01:35.991Z,6.46
2018-11-27T10:03:28.849Z,6.54
2018-11-27T10:04:28.860Z,6.54
2018-11-27T10:06:21.764Z,6.51
2018-11-27T10:07:21.770Z,6.55
2018-11-27T10:09:14.662Z,6.43
2018-11-27T10:10:14.674Z,6.40
2018-11-27T10:12:08.067Z,6.49
2018-11-27T10:13:08.079Z,6.51
2018-11-27T10:15:00.969Z,6.59
2018-11-27T10:16:00.980Z,6.59
2018-11-27T10:17:53.883Z,6.69
2018-11-27T10:18:53.887Z,6.69
2018-11-27T10:20:46.786Z,6.74
2018-11-27T10:21:46.796Z,6.71
2018-11-27T10:23:39.699Z,6.80
2018-11-27T10:24:39.702Z,6.81
2018-11-27T10:26:32.603Z,6.87
2018-11-27T10:27:32.607Z,6.92
2018-11-27T10:29:25.503Z,6.92
2018-11-27T10:30:25.515Z,7.02
2018-11-27T10:32:18.418Z,7.06
2018-11-27T10:33:18.423Z,7.02
2018-11-27T10:35:11.811Z,6.89
2018-11-27T10:36:11.826Z,7.02
2018-11-27T10:38:04.730Z,7.02
2018-11-27T10:39:04.735Z,6.97
2018-11-27T10:40:57.629Z,6.91
2018-11-27T10:41:57.640Z,6.91
2018-11-27T10:43:50.540Z,6.84
2018-11-27T10:44:50.551Z,6.77
2018-11-27T10:46:43.445Z,6.85
2018-11-27T10:47:43.445Z,6.94
2018-11-27T10:49:36.347Z,6.88
2018-11-27T10:50:36.366Z,6.97
2018-11-27T10:52:29.263Z,6.84
2018-11-27T10:53:29.268Z,6.81
2018-11-27T10:55:22.159Z,6.81
2018-11-27T10:56:22.177Z,6.92
2018-11-27T10:58:15.074Z,6.95
2018-11-27T10:59:15.084Z,6.92
2018-11-27T11:01:07.977Z,7.02
2018-11-27T11:02:07.991Z,6.95
2018-11-27T11:04:00.889Z,6.99
2018-11-27T11:05:00.897Z,7.10
2018-11-27T11:06:53.800Z,7.13
2018-11-27T11:07:53.804Z,7.09
2018-11-27T11:09:46.695Z,7.25
2018-11-27T11:10:46.702Z,7.28
2018-11-27T11:12:39.612Z,7.23
2018-11-27T11:13:39.619Z,7.30
2018-11-27T11:15:32.509Z,7.23
2018-11-27T11:16:32.528Z,7.15
2018-11-27T11:18:25.425Z,7.13
2018-11-27T11:19:25.438Z,7.15
2018-11-27T11:21:18.323Z,7.23
2018-11-27T11:22:18.344Z,7.25
2018-11-27T11:24:11.247Z,7.31
2018-11-27T11:25:11.253Z,7.21
2018-11-27T11:27:04.157Z,7.21
2018-11-27T11:28:04.163Z,7.35
2018-11-27T11:29:57.055Z,7.31
2018-11-27T11:30:57.061Z,7.42
2018-11-27T11:32:49.969Z,7.43
2018-11-27T11:33:49.973Z,7.46
2018-11-27T11:35:42.868Z,7.34
2018-11-27T11:36:42.880Z,7.31
2018-11-27T11:38:35.786Z,7.30
2018-11-27T11:39:35.785Z,7.24
2018-11-27T11:41:31.252Z,7.27
2018-11-27T11:42:28.695Z,7.25
2018-11-27T11:44:21.600Z,7.20
2018-11-27T11:45:21.603Z,7.21
2018-11-27T11:47:14.513Z,7.27
2018-11-27T11:48:14.509Z,7.28
2018-11-27T11:50:07.411Z,7.25
2018-11-27T11:51:07.416Z,7.24
2018-11-27T11:53:00.795Z,7.24
2018-11-27T11:54:00.337Z,7.28
2018-11-27T11:55:53.241Z,7.32
2018-11-27T11:56:53.244Z,7.39
2018-11-27T11:58:46.152Z,7.40
2018-11-27T11:59:46.178Z,7.46
2018-11-27T12:01:39.053Z,7.46
2018-11-27T12:02:39.086Z,7.27
2018-11-27T12:04:31.970Z,7.31
2018-11-27T12:05:31.992Z,7.35
2018-11-27T12:07:24.866Z,7.24
2018-11-27T12:08:24.899Z,7.27
2018-11-27T12:10:17.794Z,7.09
2018-11-27T12:11:17.808Z,7.06
2018-11-27T12:13:10.695Z,7.12
2018-11-27T12:14:10.714Z,7.07
2018-11-27T12:16:03.592Z,7.10
2018-11-27T12:17:03.608Z,7.03
2018-11-27T12:18:57.024Z,7.09
2018-11-27T12:19:57.007Z,7.13
2018-11-27T12:21:49.896Z,7.07
2018-11-27T12:22:49.916Z,7.10
2018-11-27T12:24:42.837Z,7.03
2018-11-27T12:25:42.825Z,7.05
2018-11-27T12:27:35.721Z,7.05
2018-11-27T12:28:35.732Z,7.05
2018-11-27T12:30:28.654Z,7.02
2018-11-27T12:31:28.639Z,7.09
2018-11-27T12:33:21.544Z,6.94
2018-11-27T12:34:21.546Z,6.92
2018-11-27T12:36:14.466Z,7.02
2018-11-27T12:37:14.566Z,6.92
2018-11-27T12:39:07.375Z,6.74
2018-11-27T12:40:07.589Z,6.79
2018-11-27T12:42:00.249Z,6.70
2018-11-27T12:43:00.573Z,6.85
2018-11-27T12:44:53.199Z,6.92
2018-11-27T12:45:53.178Z,6.88
2018-11-27T12:47:46.100Z,6.87
2018-11-27T12:48:46.085Z,6.91
2018-11-27T12:50:38.999Z,6.87
2018-11-27T12:51:38.991Z,6.88
2018-11-27T12:53:31.891Z,6.74
2018-11-27T12:54:31.909Z,6.79
2018-11-27T12:56:24.814Z,6.88
2018-11-27T12:57:24.803Z,6.77
2018-11-27T12:59:17.720Z,6.71
2018-11-27T13:00:17.712Z,6.62
2018-11-27T13:02:10.626Z,6.69
2018-11-27T13:03:10.627Z,6.64
2018-11-27T13:05:03.547Z,6.66
2018-11-27T13:06:03.801Z,6.66
2018-11-27T13:07:56.474Z,6.64
2018-11-27T13:08:56.442Z,6.69
2018-11-27T13:10:49.358Z,6.58
2018-11-27T13:11:49.345Z,6.56
2018-11-27T13:13:42.281Z,6.58
2018-11-27T13:14:42.272Z,6.58
2018-11-27T13:16:35.186Z,6.64
2018-11-27T13:17:35.177Z,6.71
2018-11-27T13:19:28.095Z,6.59
2018-11-27T13:20:28.085Z,6.54
2018-11-27T13:22:20.991Z,6.58
2018-11-27T13:23:20.990Z,6.55
2018-11-27T13:25:13.911Z,6.49
2018-11-27T13:26:13.898Z,6.48
2018-11-27T13:28:06.806Z,6.52
2018-11-27T13:29:06.846Z,6.62
2018-11-27T13:30:59.723Z,6.71
2018-11-27T13:31:59.709Z,6.70
2018-11-27T13:33:52.607Z,6.73
2018-11-27T13:34:52.685Z,6.81
2018-11-27T13:36:45.536Z,6.81
2018-11-27T13:37:45.530Z,6.80
2018-11-27T13:39:38.444Z,6.80
2018-11-27T13:40:38.425Z,6.77
2018-11-27T13:42:31.341Z,6.69
2018-11-27T13:43:31.330Z,6.71
2018-11-27T13:45:24.256Z,6.77
2018-11-27T13:46:24.244Z,6.85
2018-11-27T13:48:17.135Z,6.77
2018-11-27T13:49:17.150Z,6.79
2018-11-27T13:51:10.073Z,6.81
2018-11-27T13:52:10.080Z,6.81
2018-11-27T13:54:02.973Z,6.85
2018-11-27T13:55:02.984Z,6.71
2018-11-27T13:56:55.886Z,6.44
2018-11-27T13:57:55.889Z,6.48
2018-11-27T13:59:48.794Z,6.59
2018-11-27T14:00:48.797Z,6.52
2018-11-27T14:02:41.699Z,6.41
2018-11-27T14:03:41.707Z,6.49
2018-11-27T14:05:34.613Z,6.48
2018-11-27T14:06:34.626Z,6.43
2018-11-27T14:08:27.507Z,6.30
2018-11-27T14:09:27.521Z,6.28
2018-11-27T14:11:20.423Z,6.14
2018-11-27T14:12:20.428Z,6.08
2018-11-27T14:14:13.345Z,6.03
2018-11-27T14:15:13.341Z,6.01
2018-11-27T14:17:06.240Z,6.19
2018-11-27T14:18:06.249Z,6.14
2018-11-27T14:19:59.147Z,6.18
2018-11-27T14:20:59.169Z,6.25
2018-11-27T14:22:52.045Z,6.15
2018-11-27T14:23:52.057Z,6.08
2018-11-27T14:25:44.965Z,6.19
2018-11-27T14:26:44.967Z,6.18
2018-11-27T14:28:37.868Z,6.18
2018-11-27T14:29:37.940Z,6.21
2018-11-27T14:31:30.778Z,6.09
2018-11-27T14:32:30.782Z,6.14
2018-11-27T14:34:23.712Z,6.15
2018-11-27T14:35:23.724Z,6.14
2018-11-27T14:37:16.624Z,6.04
2018-11-27T14:38:16.632Z,6.09
2018-11-27T14:40:09.529Z,6.14
2018-11-27T14:41:09.535Z,6.12
2018-11-27T14:43:02.429Z,6.15
2018-11-27T14:44:02.439Z,6.12
2018-11-27T14:45:55.338Z,6.06
2018-11-27T14:46:55.342Z,5.99
2018-11-27T14:48:48.278Z,6.04
2018-11-27T14:49:48.246Z,6.03
2018-11-27T14:51:41.147Z,5.97
2018-11-27T14:52:41.151Z,5.89
2018-11-27T14:54:34.043Z,5.96
2018-11-27T14:55:34.056Z,5.89
2018-11-27T14:57:26.957Z,5.86
2018-11-27T14:58:26.963Z,5.86
2018-11-27T15:00:19.852Z,5.82
2018-11-27T15:01:19.867Z,5.78
2018-11-27T15:03:12.765Z,5.81
2018-11-27T15:04:12.771Z,5.86
2018-11-27T15:06:05.675Z,5.82
2018-11-27T15:07:05.675Z,5.85
2018-11-27T15:08:58.587Z,5.78
2018-11-27T15:09:58.599Z,5.83
2018-11-27T15:11:51.522Z,5.79
2018-11-27T15:12:51.528Z,5.79
2018-11-27T15:14:44.416Z,5.72
2018-11-27T15:15:44.434Z,5.78
2018-11-27T15:17:37.335Z,5.71
2018-11-27T15:18:37.339Z,5.67
2018-11-27T15:20:30.237Z,5.65
2018-11-27T15:21:30.248Z,5.56
2018-11-27T15:23:23.146Z,5.56
2018-11-27T15:24:23.148Z,5.42
2018-11-27T15:26:16.046Z,5.39
2018-11-27T15:27:16.050Z,5.39
2018-11-27T15:29:08.942Z,5.39
2018-11-27T15:30:08.953Z,5.35
2018-11-27T15:32:01.857Z,5.30
2018-11-27T15:33:01.857Z,5.22
2018-11-27T15:34:54.751Z,5.27
2018-11-27T15:35:54.762Z,5.17
2018-11-27T15:37:47.670Z,5.12
2018-11-27T15:38:47.763Z,5.09
2018-11-27T15:40:40.565Z,5.07
2018-11-27T15:41:40.572Z,5.02
2018-11-27T15:43:33.475Z,5.00
2018-11-27T15:44:33.477Z,4.94
2018-11-27T15:46:26.373Z,4.85
2018-11-27T15:47:26.379Z,4.70
2018-11-27T15:49:19.271Z,4.66
2018-11-27T15:50:19.277Z,4.62
2018-11-27T15:52:12.180Z,4.48
2018-11-27T15:53:12.182Z,4.44
2018-11-27T15:55:05.077Z,4.42
2018-11-27T15:56:05.097Z,4.42
2018-11-27T15:57:57.991Z,4.40
2018-11-27T15:58:57.991Z,4.27
2018-11-27T16:00:50.898Z,4.18
2018-11-27T16:01:50.912Z,4.15
2018-11-27T16:03:43.813Z,4.14
2018-11-27T16:04:43.813Z,4.11
2018-11-27T16:06:36.714Z,4.14
2018-11-27T16:07:36.715Z,4.02
2018-11-27T16:09:29.611Z,3.96
2018-11-27T16:10:29.648Z,3.87
2018-11-27T16:12:22.544Z,3.84
2018-11-27T16:13:22.533Z,3.88
2018-11-27T16:15:15.427Z,3.79
2018-11-27T16:16:15.438Z,3.75
2018-11-27T16:18:08.343Z,3.76
2018-11-27T16:19:08.347Z,3.60
2018-11-27T16:21:01.246Z,3.72
2018-11-27T16:22:01.252Z,3.52
2018-11-27T16:23:54.161Z,3.51
2018-11-27T16:24:54.214Z,3.60
2018-11-27T16:26:47.066Z,3.57
2018-11-27T16:27:47.069Z,3.55
2018-11-27T16:29:39.969Z,3.47
2018-11-27T16:30:39.980Z,3.62
2018-11-27T16:32:32.881Z,3.48
2018-11-27T16:33:32.884Z,3.51
2018-11-27T16:35:25.779Z,3.58
2018-11-27T16:36:25.790Z,3.58
2018-11-27T16:38:18.694Z,3.55
2018-11-27T16:39:18.691Z,3.51
2018-11-27T16:41:11.596Z,3.51
2018-11-27T16:42:12.352Z,3.48
2018-11-27T16:44:04.523Z,3.36
2018-11-27T16:45:04.531Z,3.29
2018-11-27T16:46:57.917Z,3.23
2018-11-27T16:47:57.923Z,3.31
2018-11-27T16:49:50.807Z,3.24
2018-11-27T16:50:50.817Z,3.15
2018-11-27T16:52:43.713Z,3.15
2018-11-27T16:53:43.716Z,3.08
2018-11-27T16:55:36.608Z,3.11
2018-11-27T16:56:36.615Z,3.03
2018-11-27T16:58:29.513Z,3.03
2018-11-27T16:59:29.530Z,2.99
2018-11-27T17:01:22.441Z,2.96
2018-11-27T17:02:22.447Z,2.95
2018-11-27T17:04:15.348Z,2.81
2018-11-27T17:05:15.348Z,2.95
2018-11-27T17:07:08.260Z,2.95
2018-11-27T17:08:08.248Z,2.85
2018-11-27T17:10:01.147Z,2.89
2018-11-27T17:11:01.154Z,2.93
2018-11-27T17:12:54.060Z,2.79
2018-11-27T17:13:54.059Z,2.78
2018-11-27T17:15:46.969Z,2.77
2018-11-27T17:16:46.979Z,2.72
2018-11-27T17:18:39.879Z,2.77
2018-11-27T17:19:39.875Z,2.79
2018-11-27T17:21:32.764Z,2.79
2018-11-27T17:22:32.773Z,2.74
2018-11-27T17:24:25.706Z,2.79
2018-11-27T17:25:25.669Z,2.81
2018-11-27T17:27:18.664Z,2.79
2018-11-27T17:28:18.666Z,2.77
2018-11-27T17:30:11.588Z,2.78
2018-11-27T17:31:11.713Z,2.78
2018-11-27T17:33:05.055Z,2.79
2018-11-27T17:34:05.135Z,2.84
2018-11-27T17:35:57.949Z,2.78
2018-11-27T17:36:58.056Z,2.78
2018-11-27T17:38:50.869Z,2.75
2018-11-27T17:39:50.892Z,2.78
2018-11-27T17:41:43.799Z,2.72
2018-11-27T17:42:43.737Z,2.72
2018-11-27T17:44:36.675Z,2.74
2018-11-27T17:45:36.652Z,2.64
2018-11-27T17:47:29.638Z,2.67
2018-11-27T17:48:29.661Z,2.71
2018-11-27T17:50:22.503Z,2.74
2018-11-27T17:51:22.603Z,2.72
2018-11-27T17:53:15.473Z,2.71
2018-11-27T17:54:15.487Z,2.72
2018-11-27T17:56:08.455Z,2.75
2018-11-27T17:57:08.474Z,2.75
2018-11-27T17:59:01.356Z,2.74
2018-11-27T18:00:01.327Z,2.77
2018-11-27T18:01:54.232Z,2.77
2018-11-27T18:02:54.244Z,2.72
2018-11-27T18:04:47.140Z,2.61
2018-11-27T18:05:47.159Z,2.69
2018-11-27T18:07:40.127Z,2.63
2018-11-27T18:08:40.111Z,2.63
2018-11-27T18:10:33.003Z,2.49
2018-11-27T18:11:33.012Z,2.52
2018-11-27T18:13:25.903Z,2.53
2018-11-27T18:14:25.905Z,2.49
2018-11-27T18:16:18.796Z,2.49
2018-11-27T18:17:18.803Z,2.46
2018-11-27T18:19:12.197Z,2.48
2018-11-27T18:20:12.217Z,2.53
2018-11-27T18:22:05.083Z,2.52
2018-11-27T18:23:05.126Z,2.41
2018-11-27T18:24:57.986Z,2.30
2018-11-27T18:25:57.981Z,2.25
2018-11-27T18:27:50.881Z,2.30
2018-11-27T18:28:50.895Z,2.28
2018-11-27T18:30:43.837Z,2.34
2018-11-27T18:31:43.802Z,2.25
2018-11-27T18:33:36.677Z,2.24
2018-11-27T18:34:36.678Z,2.27
2018-11-27T18:36:29.576Z,2.23
2018-11-27T18:37:29.648Z,2.16
2018-11-27T18:39:22.650Z,2.18
2018-11-27T18:40:22.489Z,2.09
2018-11-27T18:42:15.413Z,2.14
2018-11-27T18:43:15.385Z,2.02
2018-11-27T18:45:08.320Z,2.10
2018-11-27T18:46:09.089Z,2.07
2018-11-27T18:48:01.235Z,1.98
2018-11-27T18:49:01.225Z,2.02
2018-11-27T18:50:54.106Z,2.03
2018-11-27T18:51:54.120Z,2.02
2018-11-27T18:53:47.025Z,2.09
2018-11-27T18:54:47.024Z,2.02
2018-11-27T18:56:39.902Z,1.99
2018-11-27T18:57:39.912Z,2.05
2018-11-27T18:59:32.817Z,2.02
2018-11-27T19:00:32.807Z,2.05
2018-11-27T19:02:25.693Z,2.17
2018-11-27T19:03:25.702Z,2.00
2018-11-27T19:05:18.600Z,2.06
2018-11-27T19:06:18.601Z,2.02
2018-11-27T19:08:11.489Z,2.00
2018-11-27T19:09:11.504Z,2.06
2018-11-27T19:11:04.395Z,1.98